Terminal Aerodrome Forecast
Issued by NWS

Home | Current Version | Previous Version | Text Only | Print | Product List | Glossary On
Versions: 1 2 3 4 5 6 7 8 9 10 11 12 13
000
FTPA31 PHFO 281739
TAFHLI
TAF
PHLI 281739Z 2818/2918 07009KT P6SM FEW020 SCT040
     FM282100 07009KT P6SM SCT020 BKN040=

USA.gov is the U.S. government's official web portal to all federal, state and local government web resources and services.